sensor_id;sensor_type;location;lat;lon;timestamp;temperature;humidity
8664;DHT22;4369;47.842;13.096;2023-03-16T00:01:46;3.40;99.90
8664;DHT22;4369;47.842;13.096;2023-03-16T00:04:13;3.40;99.90
8664;DHT22;4369;47.842;13.096;2023-03-16T00:06:40;3.40;99.90
8664;DHT22;4369;47.842;13.096;2023-03-16T00:09:06;3.40;99.90
8664;DHT22;4369;47.842;13.096;2023-03-16T00:11:34;3.30;99.90
8664;DHT22;4369;47.842;13.096;2023-03-16T00:14:01;3.30;99.90
8664;DHT22;4369;47.842;13.096;2023-03-16T00:16:30;3.30;99.90
8664;DHT22;4369;47.842;13.096;2023-03-16T00:18:57;3.30;99.90
8664;DHT22;4369;47.842;13.096;2023-03-16T00:21:24;3.20;99.90
8664;DHT22;4369;47.842;13.096;2023-03-16T00:23:51;3.20;99.90
8664;DHT22;4369;47.842;13.096;2023-03-16T00:26:18;3.20;99.90
8664;DHT22;4369;47.842;13.096;2023-03-16T00:28:45;3.20;99.90
8664;DHT22;4369;47.842;13.096;2023-03-16T00:31:12;3.20;99.90
8664;DHT22;4369;47.842;13.096;2023-03-16T00:33:41;3.20;99.90
8664;DHT22;4369;47.842;13.096;2023-03-16T00:36:11;3.30;99.90
8664;DHT22;4369;47.842;13.096;2023-03-16T00:38:39;3.30;99.90
8664;DHT22;4369;47.842;13.096;2023-03-16T00:41:10;3.20;99.90
8664;DHT22;4369;47.842;13.096;2023-03-16T00:43:39;3.20;99.90
8664;DHT22;4369;47.842;13.096;2023-03-16T00:46:07;3.30;99.90
8664;DHT22;4369;47.842;13.096;2023-03-16T00:48:36;3.30;99.90
8664;DHT22;4369;47.842;13.096;2023-03-16T00:51:06;3.30;99.90
8664;DHT22;4369;47.842;13.096;2023-03-16T00:53:34;3.20;99.90
8664;DHT22;4369;47.842;13.096;2023-03-16T00:56:02;3.20;99.90
8664;DHT22;4369;47.842;13.096;2023-03-16T00:58:29;3.20;99.90
8664;DHT22;4369;47.842;13.096;2023-03-16T01:01:00;3.20;99.90
8664;DHT22;4369;47.842;13.096;2023-03-16T01:03:27;3.10;99.90
8664;DHT22;4369;47.842;13.096;2023-03-16T01:05:54;3.10;99.90
8664;DHT22;4369;47.842;13.096;2023-03-16T01:08:26;3.00;99.90
8664;DHT22;4369;47.842;13.096;2023-03-16T01:10:53;3.00;99.90
8664;DHT22;4369;47.842;13.096;2023-03-16T01:13:20;2.90;99.90
8664;DHT22;4369;47.842;13.096;2023-03-16T01:15:49;2.90;99.90
8664;DHT22;4369;47.842;13.096;2023-03-16T01:18:17;2.90;99.90
8664;DHT22;4369;47.842;13.096;2023-03-16T01:20:44;2.90;99.90
8664;DHT22;4369;47.842;13.096;2023-03-16T01:23:15;2.80;99.90
8664;DHT22;4369;47.842;13.096;2023-03-16T01:25:44;2.80;99.90
8664;DHT22;4369;47.842;13.096;2023-03-16T01:28:18;2.80;99.90
8664;DHT22;4369;47.842;13.096;2023-03-16T01:30:44;2.80;99.90
8664;DHT22;4369;47.842;13.096;2023-03-16T01:33:11;2.80;99.90
8664;DHT22;4369;47.842;13.096;2023-03-16T01:35:38;2.80;99.90
8664;DHT22;4369;47.842;13.096;2023-03-16T01:38:05;2.80;99.90
8664;DHT22;4369;47.842;13.096;2023-03-16T01:40:32;2.80;99.90
8664;DHT22;4369;47.842;13.096;2023-03-16T01:43:02;2.70;99.90
8664;DHT22;4369;47.842;13.096;2023-03-16T01:49:00;2.80;99.90
8664;DHT22;4369;47.842;13.096;2023-03-16T01:51:34;2.80;99.90
8664;DHT22;4369;47.842;13.096;2023-03-16T01:54:05;2.80;99.90
8664;DHT22;4369;47.842;13.096;2023-03-16T01:56:36;2.80;99.90
8664;DHT22;4369;47.842;13.096;2023-03-16T01:59:09;2.80;99.90
8664;DHT22;4369;47.842;13.096;2023-03-16T02:01:37;2.80;99.90
8664;DHT22;4369;47.842;13.096;2023-03-16T02:04:12;2.80;99.90
8664;DHT22;4369;47.842;13.096;2023-03-16T02:06:40;2.80;99.90
8664;DHT22;4369;47.842;13.096;2023-03-16T02:09:08;2.80;99.90
8664;DHT22;4369;47.842;13.096;2023-03-16T02:11:36;2.70;99.90
8664;DHT22;4369;47.842;13.096;2023-03-16T02:14:09;2.70;99.90
8664;DHT22;4369;47.842;13.096;2023-03-16T02:16:36;2.60;99.90
8664;DHT22;4369;47.842;13.096;2023-03-16T02:19:08;2.60;99.90
8664;DHT22;4369;47.842;13.096;2023-03-16T02:21:44;2.60;99.90
8664;DHT22;4369;47.842;13.096;2023-03-16T02:24:12;2.60;99.90
8664;DHT22;4369;47.842;13.096;2023-03-16T02:26:41;2.60;99.90
8664;DHT22;4369;47.842;13.096;2023-03-16T02:29:22;2.60;99.90
8664;DHT22;4369;47.842;13.096;2023-03-16T02:31:53;2.60;99.90
8664;DHT22;4369;47.842;13.096;2023-03-16T02:34:22;2.60;99.90
8664;DHT22;4369;47.842;13.096;2023-03-16T02:36:50;2.60;99.90
8664;DHT22;4369;47.842;13.096;2023-03-16T02:39:18;2.60;99.90
8664;DHT22;4369;47.842;13.096;2023-03-16T02:41:45;2.50;99.90
8664;DHT22;4369;47.842;13.096;2023-03-16T02:44:15;2.50;99.90
8664;DHT22;4369;47.842;13.096;2023-03-16T02:46:45;2.40;99.90
8664;DHT22;4369;47.842;13.096;2023-03-16T02:49:17;2.40;99.90
8664;DHT22;4369;47.842;13.096;2023-03-16T02:51:45;2.40;99.90
8664;DHT22;4369;47.842;13.096;2023-03-16T02:54:12;2.40;99.90
8664;DHT22;4369;47.842;13.096;2023-03-16T02:56:39;2.30;99.90
8664;DHT22;4369;47.842;13.096;2023-03-16T02:59:06;2.40;99.90
8664;DHT22;4369;47.842;13.096;2023-03-16T03:01:33;2.30;99.90
8664;DHT22;4369;47.842;13.096;2023-03-16T03:04:01;2.30;99.90
8664;DHT22;4369;47.842;13.096;2023-03-16T03:06:29;2.30;99.90
8664;DHT22;4369;47.842;13.096;2023-03-16T03:08:56;2.40;99.90
8664;DHT22;4369;47.842;13.096;2023-03-16T03:11:23;2.30;99.90
8664;DHT22;4369;47.842;13.096;2023-03-16T03:13:50;2.30;99.90
8664;DHT22;4369;47.842;13.096;2023-03-16T03:16:17;2.30;99.90
8664;DHT22;4369;47.842;13.096;2023-03-16T03:18:44;2.40;99.90
8664;DHT22;4369;47.842;13.096;2023-03-16T03:21:11;2.40;99.90
8664;DHT22;4369;47.842;13.096;2023-03-16T03:23:40;2.40;99.90
8664;DHT22;4369;47.842;13.096;2023-03-16T03:26:07;2.40;99.90
8664;DHT22;4369;47.842;13.096;2023-03-16T03:28:33;2.50;99.90
8664;DHT22;4369;47.842;13.096;2023-03-16T03:31:00;2.50;99.90
8664;DHT22;4369;47.842;13.096;2023-03-16T03:33:27;2.50;99.90
8664;DHT22;4369;47.842;13.096;2023-03-16T03:35:54;2.50;99.90
8664;DHT22;4369;47.842;13.096;2023-03-16T03:38:23;2.50;99.90
8664;DHT22;4369;47.842;13.096;2023-03-16T03:40:52;2.50;99.90
8664;DHT22;4369;47.842;13.096;2023-03-16T03:43:21;2.50;99.90
8664;DHT22;4369;47.842;13.096;2023-03-16T03:45:47;2.60;99.90
8664;DHT22;4369;47.842;13.096;2023-03-16T03:48:14;2.60;99.90
8664;DHT22;4369;47.842;13.096;2023-03-16T03:50:41;2.60;99.90
8664;DHT22;4369;47.842;13.096;2023-03-16T03:53:08;2.60;99.90
8664;DHT22;4369;47.842;13.096;2023-03-16T03:55:35;2.60;99.90
8664;DHT22;4369;47.842;13.096;2023-03-16T03:58:03;2.60;99.90
8664;DHT22;4369;47.842;13.096;2023-03-16T04:00:30;2.60;99.90
8664;DHT22;4369;47.842;13.096;2023-03-16T04:02:57;2.60;99.90
8664;DHT22;4369;47.842;13.096;2023-03-16T04:05:24;2.60;99.90
8664;DHT22;4369;47.842;13.096;2023-03-16T04:07:52;2.70;99.90
8664;DHT22;4369;47.842;13.096;2023-03-16T04:10:22;2.70;99.90
8664;DHT22;4369;47.842;13.096;2023-03-16T04:12:49;2.60;99.90
8664;DHT22;4369;47.842;13.096;2023-03-16T04:15:18;2.60;99.90
8664;DHT22;4369;47.842;13.096;2023-03-16T04:17:46;2.60;99.90
8664;DHT22;4369;47.842;13.096;2023-03-16T04:20:14;2.70;99.90
8664;DHT22;4369;47.842;13.096;2023-03-16T04:22:44;2.70;99.90
8664;DHT22;4369;47.842;13.096;2023-03-16T04:25:13;2.70;99.90
8664;DHT22;4369;47.842;13.096;2023-03-16T04:27:40;2.80;99.90
8664;DHT22;4369;47.842;13.096;2023-03-16T04:30:10;2.70;99.90
8664;DHT22;4369;47.842;13.096;2023-03-16T04:32:39;2.80;99.90
8664;DHT22;4369;47.842;13.096;2023-03-16T04:35:07;2.80;99.90
8664;DHT22;4369;47.842;13.096;2023-03-16T04:37:34;2.80;99.90
8664;DHT22;4369;47.842;13.096;2023-03-16T04:40:00;2.80;99.90
8664;DHT22;4369;47.842;13.096;2023-03-16T04:42:34;2.80;99.90
8664;DHT22;4369;47.842;13.096;2023-03-16T04:45:01;2.70;99.90
8664;DHT22;4369;47.842;13.096;2023-03-16T04:47:28;2.70;99.90
8664;DHT22;4369;47.842;13.096;2023-03-16T04:50:00;2.70;99.90
8664;DHT22;4369;47.842;13.096;2023-03-16T04:52:27;2.60;99.90
8664;DHT22;4369;47.842;13.096;2023-03-16T04:54:54;2.50;99.90
8664;DHT22;4369;47.842;13.096;2023-03-16T04:57:21;2.40;99.90
8664;DHT22;4369;47.842;13.096;2023-03-16T04:59:48;2.40;99.90
8664;DHT22;4369;47.842;13.096;2023-03-16T05:02:16;2.50;99.90
8664;DHT22;4369;47.842;13.096;2023-03-16T05:04:44;2.50;99.90
8664;DHT22;4369;47.842;13.096;2023-03-16T05:07:12;2.50;99.90
8664;DHT22;4369;47.842;13.096;2023-03-16T05:09:39;2.50;99.90
8664;DHT22;4369;47.842;13.096;2023-03-16T05:12:08;2.40;99.90
8664;DHT22;4369;47.842;13.096;2023-03-16T05:14:35;2.40;99.90
8664;DHT22;4369;47.842;13.096;2023-03-16T05:17:02;2.40;99.90
8664;DHT22;4369;47.842;13.096;2023-03-16T05:19:29;2.40;99.90
8664;DHT22;4369;47.842;13.096;2023-03-16T05:21:56;2.40;99.90
8664;DHT22;4369;47.842;13.096;2023-03-16T05:24:24;2.40;99.90
8664;DHT22;4369;47.842;13.096;2023-03-16T05:26:51;2.30;99.90
8664;DHT22;4369;47.842;13.096;2023-03-16T05:29:18;2.30;99.90
8664;DHT22;4369;47.842;13.096;2023-03-16T05:31:45;2.30;99.90
8664;DHT22;4369;47.842;13.096;2023-03-16T05:34:13;2.30;99.90
8664;DHT22;4369;47.842;13.096;2023-03-16T05:36:39;2.30;99.90
8664;DHT22;4369;47.842;13.096;2023-03-16T05:39:06;2.30;99.90
8664;DHT22;4369;47.842;13.096;2023-03-16T05:41:35;2.40;99.90
8664;DHT22;4369;47.842;13.096;2023-03-16T05:44:02;2.30;99.90
8664;DHT22;4369;47.842;13.096;2023-03-16T05:46:29;2.30;99.90
8664;DHT22;4369;47.842;13.096;2023-03-16T05:48:56;2.40;99.90
8664;DHT22;4369;47.842;13.096;2023-03-16T05:51:23;2.50;99.90
8664;DHT22;4369;47.842;13.096;2023-03-16T05:53:51;2.50;99.90
8664;DHT22;4369;47.842;13.096;2023-03-16T05:56:21;2.50;99.90
8664;DHT22;4369;47.842;13.096;2023-03-16T05:58:50;2.40;99.90
8664;DHT22;4369;47.842;13.096;2023-03-16T06:01:17;2.40;99.90
8664;DHT22;4369;47.842;13.096;2023-03-16T06:03:45;2.30;99.90
8664;DHT22;4369;47.842;13.096;2023-03-16T06:06:13;2.20;99.90
8664;DHT22;4369;47.842;13.096;2023-03-16T06:08:40;2.20;99.90
8664;DHT22;4369;47.842;13.096;2023-03-16T06:11:07;2.10;99.90
8664;DHT22;4369;47.842;13.096;2023-03-16T06:13:35;2.00;99.90
8664;DHT22;4369;47.842;13.096;2023-03-16T06:16:03;2.00;99.90
8664;DHT22;4369;47.842;13.096;2023-03-16T06:18:31;2.10;99.90
8664;DHT22;4369;47.842;13.096;2023-03-16T06:20:57;2.10;99.90
8664;DHT22;4369;47.842;13.096;2023-03-16T06:23:24;2.10;99.90
8664;DHT22;4369;47.842;13.096;2023-03-16T06:25:51;2.10;99.90
8664;DHT22;4369;47.842;13.096;2023-03-16T06:28:20;1.90;99.90
8664;DHT22;4369;47.842;13.096;2023-03-16T06:30:47;2.00;99.90
8664;DHT22;4369;47.842;13.096;2023-03-16T06:33:15;2.10;99.90
8664;DHT22;4369;47.842;13.096;2023-03-16T06:35:42;2.00;99.90
8664;DHT22;4369;47.842;13.096;2023-03-16T06:38:08;1.90;99.90
8664;DHT22;4369;47.842;13.096;2023-03-16T06:40:35;2.00;99.90
8664;DHT22;4369;47.842;13.096;2023-03-16T06:43:02;2.10;99.90
8664;DHT22;4369;47.842;13.096;2023-03-16T06:45:30;2.20;99.90
8664;DHT22;4369;47.842;13.096;2023-03-16T06:47:57;2.30;99.90
8664;DHT22;4369;47.842;13.096;2023-03-16T06:50:26;2.50;99.90
8664;DHT22;4369;47.842;13.096;2023-03-16T06:52:53;2.60;99.90
8664;DHT22;4369;47.842;13.096;2023-03-16T06:55:19;2.60;99.90
8664;DHT22;4369;47.842;13.096;2023-03-16T06:57:46;2.70;99.90
8664;DHT22;4369;47.842;13.096;2023-03-16T07:00:15;2.80;99.90
8664;DHT22;4369;47.842;13.096;2023-03-16T07:02:42;2.90;99.90
8664;DHT22;4369;47.842;13.096;2023-03-16T07:05:09;3.00;99.90
8664;DHT22;4369;47.842;13.096;2023-03-16T07:07:39;3.10;99.90
8664;DHT22;4369;47.842;13.096;2023-03-16T07:10:09;3.00;99.90
8664;DHT22;4369;47.842;13.096;2023-03-16T07:12:36;3.10;99.90
8664;DHT22;4369;47.842;13.096;2023-03-16T07:15:03;3.20;99.90
8664;DHT22;4369;47.842;13.096;2023-03-16T07:17:30;3.30;99.90
8664;DHT22;4369;47.842;13.096;2023-03-16T07:19:57;3.30;99.90
8664;DHT22;4369;47.842;13.096;2023-03-16T07:22:24;3.40;99.90
8664;DHT22;4369;47.842;13.096;2023-03-16T07:24:52;3.60;99.90
8664;DHT22;4369;47.842;13.096;2023-03-16T07:27:22;3.70;99.90
8664;DHT22;4369;47.842;13.096;2023-03-16T07:29:49;3.80;99.90
8664;DHT22;4369;47.842;13.096;2023-03-16T07:32:16;3.80;99.90
8664;DHT22;4369;47.842;13.096;2023-03-16T07:34:43;3.90;99.90
8664;DHT22;4369;47.842;13.096;2023-03-16T07:37:11;3.90;99.90
8664;DHT22;4369;47.842;13.096;2023-03-16T07:39:37;4.00;99.90
8664;DHT22;4369;47.842;13.096;2023-03-16T07:42:06;4.10;99.90
8664;DHT22;4369;47.842;13.096;2023-03-16T07:44:33;4.10;99.90
8664;DHT22;4369;47.842;13.096;2023-03-16T07:47:00;4.20;99.90
8664;DHT22;4369;47.842;13.096;2023-03-16T07:49:27;4.30;99.90
8664;DHT22;4369;47.842;13.096;2023-03-16T07:51:54;4.30;99.90
8664;DHT22;4369;47.842;13.096;2023-03-16T07:54:20;4.40;99.90
8664;DHT22;4369;47.842;13.096;2023-03-16T07:56:48;4.50;99.90
8664;DHT22;4369;47.842;13.096;2023-03-16T07:59:17;4.50;99.90
8664;DHT22;4369;47.842;13.096;2023-03-16T08:01:45;4.50;99.90
8664;DHT22;4369;47.842;13.096;2023-03-16T08:04:12;4.40;99.90
8664;DHT22;4369;47.842;13.096;2023-03-16T08:06:39;4.50;99.90
8664;DHT22;4369;47.842;13.096;2023-03-16T08:09:06;4.40;99.90
8664;DHT22;4369;47.842;13.096;2023-03-16T08:11:34;4.50;99.90
8664;DHT22;4369;47.842;13.096;2023-03-16T08:14:00;4.70;99.90
8664;DHT22;4369;47.842;13.096;2023-03-16T08:16:30;4.80;99.90
8664;DHT22;4369;47.842;13.096;2023-03-16T08:18:57;4.90;99.90
8664;DHT22;4369;47.842;13.096;2023-03-16T08:21:24;4.90;99.90
8664;DHT22;4369;47.842;13.096;2023-03-16T08:23:51;5.00;99.90
8664;DHT22;4369;47.842;13.096;2023-03-16T08:26:19;5.00;99.90
8664;DHT22;4369;47.842;13.096;2023-03-16T08:28:47;5.00;99.90
8664;DHT22;4369;47.842;13.096;2023-03-16T08:31:17;5.00;99.90
8664;DHT22;4369;47.842;13.096;2023-03-16T08:33:46;5.10;99.90
8664;DHT22;4369;47.842;13.096;2023-03-16T08:36:16;5.30;99.90
8664;DHT22;4369;47.842;13.096;2023-03-16T08:38:43;5.50;99.90
8664;DHT22;4369;47.842;13.096;2023-03-16T08:41:11;5.60;99.90
8664;DHT22;4369;47.842;13.096;2023-03-16T08:43:41;5.80;99.90
8664;DHT22;4369;47.842;13.096;2023-03-16T08:46:09;5.90;99.90
8664;DHT22;4369;47.842;13.096;2023-03-16T08:48:36;6.10;99.90
8664;DHT22;4369;47.842;13.096;2023-03-16T08:51:04;6.20;99.90
8664;DHT22;4369;47.842;13.096;2023-03-16T08:53:31;6.30;99.90
8664;DHT22;4369;47.842;13.096;2023-03-16T08:56:02;6.30;99.90
8664;DHT22;4369;47.842;13.096;2023-03-16T08:58:31;6.30;99.90
8664;DHT22;4369;47.842;13.096;2023-03-16T09:00:58;6.30;99.90
8664;DHT22;4369;47.842;13.096;2023-03-16T09:03:26;6.40;99.90
8664;DHT22;4369;47.842;13.096;2023-03-16T09:05:53;6.50;99.90
8664;DHT22;4369;47.842;13.096;2023-03-16T09:08:23;6.60;99.90
8664;DHT22;4369;47.842;13.096;2023-03-16T09:10:58;6.60;99.90
8664;DHT22;4369;47.842;13.096;2023-03-16T09:13:25;6.50;99.90
8664;DHT22;4369;47.842;13.096;2023-03-16T09:15:52;6.60;99.90
8664;DHT22;4369;47.842;13.096;2023-03-16T09:18:19;6.70;99.90
8664;DHT22;4369;47.842;13.096;2023-03-16T09:20:47;6.70;99.90
8664;DHT22;4369;47.842;13.096;2023-03-16T09:23:14;6.80;99.90
8664;DHT22;4369;47.842;13.096;2023-03-16T09:25:42;6.90;99.90
8664;DHT22;4369;47.842;13.096;2023-03-16T09:28:09;7.00;99.90
8664;DHT22;4369;47.842;13.096;2023-03-16T09:30:37;7.00;99.90
8664;DHT22;4369;47.842;13.096;2023-03-16T09:33:04;7.10;99.90
8664;DHT22;4369;47.842;13.096;2023-03-16T09:35:31;7.10;99.90
8664;DHT22;4369;47.842;13.096;2023-03-16T09:37:58;7.20;99.90
8664;DHT22;4369;47.842;13.096;2023-03-16T09:40:26;7.30;99.90
8664;DHT22;4369;47.842;13.096;2023-03-16T09:43:07;7.50;99.90
8664;DHT22;4369;47.842;13.096;2023-03-16T09:45:41;7.50;99.90
8664;DHT22;4369;47.842;13.096;2023-03-16T09:48:09;7.50;99.90
8664;DHT22;4369;47.842;13.096;2023-03-16T09:50:39;7.70;99.90
8664;DHT22;4369;47.842;13.096;2023-03-16T09:53:16;7.90;99.90
8664;DHT22;4369;47.842;13.096;2023-03-16T09:55:47;7.90;99.90
8664;DHT22;4369;47.842;13.096;2023-03-16T09:58:18;8.10;99.90
8664;DHT22;4369;47.842;13.096;2023-03-16T10:00:50;8.10;99.90
8664;DHT22;4369;47.842;13.096;2023-03-16T10:03:29;8.20;99.90
8664;DHT22;4369;47.842;13.096;2023-03-16T10:06:01;8.20;99.90
8664;DHT22;4369;47.842;13.096;2023-03-16T10:08:32;8.30;99.90
8664;DHT22;4369;47.842;13.096;2023-03-16T10:11:19;8.30;99.90
8664;DHT22;4369;47.842;13.096;2023-03-16T10:13:53;8.50;99.90
8664;DHT22;4369;47.842;13.096;2023-03-16T10:16:26;8.70;99.90
8664;DHT22;4369;47.842;13.096;2023-03-16T10:18:59;8.70;99.90
8664;DHT22;4369;47.842;13.096;2023-03-16T10:21:30;8.70;99.90
8664;DHT22;4369;47.842;13.096;2023-03-16T10:24:00;8.80;99.90
8664;DHT22;4369;47.842;13.096;2023-03-16T10:26:35;8.80;99.90
8664;DHT22;4369;47.842;13.096;2023-03-16T10:29:08;8.80;99.90
8664;DHT22;4369;47.842;13.096;2023-03-16T10:31:38;8.90;99.90
8664;DHT22;4369;47.842;13.096;2023-03-16T10:34:06;9.10;99.90
8664;DHT22;4369;47.842;13.096;2023-03-16T10:36:38;9.30;99.90
8664;DHT22;4369;47.842;13.096;2023-03-16T10:39:07;9.40;99.90
8664;DHT22;4369;47.842;13.096;2023-03-16T10:41:36;9.50;99.90
8664;DHT22;4369;47.842;13.096;2023-03-16T10:44:10;9.70;99.90
8664;DHT22;4369;47.842;13.096;2023-03-16T10:46:39;9.90;99.90
8664;DHT22;4369;47.842;13.096;2023-03-16T10:49:21;10.00;99.90
8664;DHT22;4369;47.842;13.096;2023-03-16T10:51:51;10.10;99.90
8664;DHT22;4369;47.842;13.096;2023-03-16T10:54:25;10.10;99.90
8664;DHT22;4369;47.842;13.096;2023-03-16T10:56:54;10.20;99.90
8664;DHT22;4369;47.842;13.096;2023-03-16T10:59:28;10.20;98.60
8664;DHT22;4369;47.842;13.096;2023-03-16T11:01:56;10.20;98.50
8664;DHT22;4369;47.842;13.096;2023-03-16T11:04:24;10.40;99.80
8664;DHT22;4369;47.842;13.096;2023-03-16T11:06:53;10.70;98.90
8664;DHT22;4369;47.842;13.096;2023-03-16T11:09:22;10.80;97.20
8664;DHT22;4369;47.842;13.096;2023-03-16T11:11:51;10.60;94.70
8664;DHT22;4369;47.842;13.096;2023-03-16T11:14:20;10.70;96.10
8664;DHT22;4369;47.842;13.096;2023-03-16T11:16:56;10.80;97.60
8664;DHT22;4369;47.842;13.096;2023-03-16T11:19:27;11.10;98.40
8664;DHT22;4369;47.842;13.096;2023-03-16T11:21:58;11.30;97.00
8664;DHT22;4369;47.842;13.096;2023-03-16T11:24:35;11.20;94.60
8664;DHT22;4369;47.842;13.096;2023-03-16T11:29:40;11.30;94.60
8664;DHT22;4369;47.842;13.096;2023-03-16T11:32:15;11.40;94.80
8664;DHT22;4369;47.842;13.096;2023-03-16T11:34:47;11.50;95.50
8664;DHT22;4369;47.842;13.096;2023-03-16T11:38:14;11.70;94.80
8664;DHT22;4369;47.842;13.096;2023-03-16T11:40:52;11.90;93.00
8664;DHT22;4369;47.842;13.096;2023-03-16T11:43:45;12.10;92.70
8664;DHT22;4369;47.842;13.096;2023-03-16T11:46:16;12.20;91.90
8664;DHT22;4369;47.842;13.096;2023-03-16T11:48:52;12.70;92.60
8664;DHT22;4369;47.842;13.096;2023-03-16T11:51:34;12.90;90.50
8664;DHT22;4369;47.842;13.096;2023-03-16T11:54:12;13.40;92.50
8664;DHT22;4369;47.842;13.096;2023-03-16T11:56:45;14.00;90.20
8664;DHT22;4369;47.842;13.096;2023-03-16T12:02:04;15.00;84.10
8664;DHT22;4369;47.842;13.096;2023-03-16T12:04:51;15.10;80.50
8664;DHT22;4369;47.842;13.096;2023-03-16T12:07:29;15.60;77.40
8664;DHT22;4369;47.842;13.096;2023-03-16T12:10:19;16.90;73.40
8664;DHT22;4369;47.842;13.096;2023-03-16T12:13:22;19.30;62.40
8664;DHT22;4369;47.842;13.096;2023-03-16T12:15:58;21.80;53.40
8664;DHT22;4369;47.842;13.096;2023-03-16T12:18:41;23.40;49.00
8664;DHT22;4369;47.842;13.096;2023-03-16T12:21:13;24.30;45.70
8664;DHT22;4369;47.842;13.096;2023-03-16T12:23:47;26.60;40.50
8664;DHT22;4369;47.842;13.096;2023-03-16T12:26:16;28.60;37.50
8664;DHT22;4369;47.842;13.096;2023-03-16T12:28:44;30.10;34.30
8664;DHT22;4369;47.842;13.096;2023-03-16T12:31:13;31.00;32.00
8664;DHT22;4369;47.842;13.096;2023-03-16T12:33:56;31.50;30.80
8664;DHT22;4369;47.842;13.096;2023-03-16T12:36:51;34.70;29.60
8664;DHT22;4369;47.842;13.096;2023-03-16T12:39:39;37.30;27.50
8664;DHT22;4369;47.842;13.096;2023-03-16T12:42:24;37.00;26.00
8664;DHT22;4369;47.842;13.096;2023-03-16T12:44:56;39.20;25.70
8664;DHT22;4369;47.842;13.096;2023-03-16T12:47:30;40.70;24.10
8664;DHT22;4369;47.842;13.096;2023-03-16T12:50:05;40.90;22.90
8664;DHT22;4369;47.842;13.096;2023-03-16T12:52:40;41.80;22.40
8664;DHT22;4369;47.842;13.096;2023-03-16T12:55:13;40.30;22.10
8664;DHT22;4369;47.842;13.096;2023-03-16T12:57:41;40.40;22.50
8664;DHT22;4369;47.842;13.096;2023-03-16T13:00:11;41.40;21.90
8664;DHT22;4369;47.842;13.096;2023-03-16T13:02:43;40.20;21.10
8664;DHT22;4369;47.842;13.096;2023-03-16T13:05:13;40.70;21.10
8664;DHT22;4369;47.842;13.096;2023-03-16T13:07:47;39.90;21.20
8664;DHT22;4369;47.842;13.096;2023-03-16T13:10:16;40.60;21.00
8664;DHT22;4369;47.842;13.096;2023-03-16T13:12:46;39.80;21.20
8664;DHT22;4369;47.842;13.096;2023-03-16T13:15:27;39.90;21.10
8664;DHT22;4369;47.842;13.096;2023-03-16T13:18:18;39.50;21.50
8664;DHT22;4369;47.842;13.096;2023-03-16T13:20:52;39.50;21.30
8664;DHT22;4369;47.842;13.096;2023-03-16T13:23:24;41.10;21.50
8664;DHT22;4369;47.842;13.096;2023-03-16T13:26:05;40.50;21.10
8664;DHT22;4369;47.842;13.096;2023-03-16T13:28:38;40.80;21.20
8664;DHT22;4369;47.842;13.096;2023-03-16T13:31:19;40.20;20.70
8664;DHT22;4369;47.842;13.096;2023-03-16T13:33:49;39.50;20.70
8664;DHT22;4369;47.842;13.096;2023-03-16T13:36:19;40.10;21.00
8664;DHT22;4369;47.842;13.096;2023-03-16T13:38:56;39.90;20.90
8664;DHT22;4369;47.842;13.096;2023-03-16T13:41:28;39.00;20.80
8664;DHT22;4369;47.842;13.096;2023-03-16T13:43:55;38.80;21.00
8664;DHT22;4369;47.842;13.096;2023-03-16T13:46:27;39.40;21.30
8664;DHT22;4369;47.842;13.096;2023-03-16T13:48:56;39.90;21.30
8664;DHT22;4369;47.842;13.096;2023-03-16T13:51:24;40.20;20.80
8664;DHT22;4369;47.842;13.096;2023-03-16T13:53:51;38.80;20.60
8664;DHT22;4369;47.842;13.096;2023-03-16T13:56:23;38.40;21.20
8664;DHT22;4369;47.842;13.096;2023-03-16T13:58:55;38.30;21.20
8664;DHT22;4369;47.842;13.096;2023-03-16T14:01:25;38.50;20.80
8664;DHT22;4369;47.842;13.096;2023-03-16T14:04:09;38.80;21.40
8664;DHT22;4369;47.842;13.096;2023-03-16T14:06:38;38.80;21.00
8664;DHT22;4369;47.842;13.096;2023-03-16T14:09:12;37.50;20.90
8664;DHT22;4369;47.842;13.096;2023-03-16T14:11:40;38.10;20.80
8664;DHT22;4369;47.842;13.096;2023-03-16T14:14:13;38.40;21.50
8664;DHT22;4369;47.842;13.096;2023-03-16T14:16:40;38.30;20.90
8664;DHT22;4369;47.842;13.096;2023-03-16T14:19:15;37.60;21.10
8664;DHT22;4369;47.842;13.096;2023-03-16T14:21:44;37.40;21.50
8664;DHT22;4369;47.842;13.096;2023-03-16T14:24:21;38.40;22.10
8664;DHT22;4369;47.842;13.096;2023-03-16T14:26:51;37.60;21.40
8664;DHT22;4369;47.842;13.096;2023-03-16T14:29:21;37.80;21.30
8664;DHT22;4369;47.842;13.096;2023-03-16T14:31:50;37.70;21.90
8664;DHT22;4369;47.842;13.096;2023-03-16T14:34:27;37.40;21.10
8664;DHT22;4369;47.842;13.096;2023-03-16T14:37:04;35.10;22.00
8664;DHT22;4369;47.842;13.096;2023-03-16T14:39:32;34.70;22.80
8664;DHT22;4369;47.842;13.096;2023-03-16T14:42:01;34.30;22.90
8664;DHT22;4369;47.842;13.096;2023-03-16T14:44:31;33.10;23.30
8664;DHT22;4369;47.842;13.096;2023-03-16T14:47:00;31.10;24.10
8664;DHT22;4369;47.842;13.096;2023-03-16T14:49:31;29.10;25.80
8664;DHT22;4369;47.842;13.096;2023-03-16T14:52:00;27.10;27.40
8664;DHT22;4369;47.842;13.096;2023-03-16T14:54:28;25.60;29.00
8664;DHT22;4369;47.842;13.096;2023-03-16T14:56:59;23.80;29.30
8664;DHT22;4369;47.842;13.096;2023-03-16T14:59:27;22.00;30.50
8664;DHT22;4369;47.842;13.096;2023-03-16T15:01:54;21.50;31.60
8664;DHT22;4369;47.842;13.096;2023-03-16T15:04:26;22.00;30.60
8664;DHT22;4369;47.842;13.096;2023-03-16T15:06:56;22.50;29.70
8664;DHT22;4369;47.842;13.096;2023-03-16T15:09:31;22.20;30.80
8664;DHT22;4369;47.842;13.096;2023-03-16T15:11:59;20.40;31.80
8664;DHT22;4369;47.842;13.096;2023-03-16T15:14:26;18.60;34.90
8664;DHT22;4369;47.842;13.096;2023-03-16T15:17:10;17.30;36.70
8664;DHT22;4369;47.842;13.096;2023-03-16T15:19:38;16.40;37.40
8664;DHT22;4369;47.842;13.096;2023-03-16T15:22:10;15.60;38.60
8664;DHT22;4369;47.842;13.096;2023-03-16T15:24:38;15.30;40.10
8664;DHT22;4369;47.842;13.096;2023-03-16T15:27:14;14.80;41.20
8664;DHT22;4369;47.842;13.096;2023-03-16T15:29:43;14.50;42.00
8664;DHT22;4369;47.842;13.096;2023-03-16T15:32:12;14.20;42.70
8664;DHT22;4369;47.842;13.096;2023-03-16T15:34:40;13.90;43.40
8664;DHT22;4369;47.842;13.096;2023-03-16T15:37:11;13.50;44.10
8664;DHT22;4369;47.842;13.096;2023-03-16T15:39:39;13.20;44.70
8664;DHT22;4369;47.842;13.096;2023-03-16T15:42:12;12.90;45.60
8664;DHT22;4369;47.842;13.096;2023-03-16T15:44:40;12.80;46.30
8664;DHT22;4369;47.842;13.096;2023-03-16T15:47:07;12.70;47.30
8664;DHT22;4369;47.842;13.096;2023-03-16T15:49:35;12.40;47.70
8664;DHT22;4369;47.842;13.096;2023-03-16T15:52:02;12.20;48.60
8664;DHT22;4369;47.842;13.096;2023-03-16T15:54:32;12.10;49.10
8664;DHT22;4369;47.842;13.096;2023-03-16T15:57:00;12.00;49.30
8664;DHT22;4369;47.842;13.096;2023-03-16T15:59:31;11.90;49.80
8664;DHT22;4369;47.842;13.096;2023-03-16T16:02:01;11.60;49.70
8664;DHT22;4369;47.842;13.096;2023-03-16T16:04:28;11.50;50.70
8664;DHT22;4369;47.842;13.096;2023-03-16T16:06:55;11.40;51.50
8664;DHT22;4369;47.842;13.096;2023-03-16T16:09:23;11.30;52.30
8664;DHT22;4369;47.842;13.096;2023-03-16T16:11:53;11.20;52.70
8664;DHT22;4369;47.842;13.096;2023-03-16T16:14:22;11.20;53.30
8664;DHT22;4369;47.842;13.096;2023-03-16T16:16:50;11.10;53.70
8664;DHT22;4369;47.842;13.096;2023-03-16T16:19:18;11.00;54.20
8664;DHT22;4369;47.842;13.096;2023-03-16T16:21:48;10.90;54.10
8664;DHT22;4369;47.842;13.096;2023-03-16T16:24:21;10.80;54.20